Saint Marys City, Maryland
Current Conditions -  °F | °C
As of 5:53 PM on Monday 22 Dec 2014 (Local Time) from KNUI Reporting Station
Haze Haze  
Wind Chill:   Ceiling: 600
Heat Index:   Visibility: 4mi
Dew Point:   Wind: 9mph
Humidity: 89%   Direction: 50°NE
Pressure: 30.1"   Gusts: NA
Location:  38.19°N, 76.43°W
Report Text: KNUI 222253Z AUTO 05008KT 4SM BR OVC006 04/03 A3010 RMK AO2 CIG 005V011 SLP193 T00440028
Loading
Personal Weather Stations






























Interactive Weather Map New forecast layout! Learn more

10-Day Weather Forecast

Advertisements
Track Severe Weather on mobile